Terminal Aerodrome Forecast
Issued by NWS Jackson, MS

Home | Current Version | Previous Version | Text Only | Print | Product List | Glossary On
Versions: 1 2 3 4 5 6 7 8 9 10 11 12 13 14 15 16
569
FTUS44 KJAN 181133
TAFHBG
TAF
KHBG 181133Z 1812/1912 19005KT P6SM BKN035
     FM181500 21016G24KT P6SM BKN025
     FM190100 26015G25KT P6SM VCSH BKN025
     FM190300 34016G24KT P6SM VCSH BKN035
     FM190500 34013KT P6SM BKN035=

USA.gov is the U.S. government's official web portal to all federal, state and local government web resources and services.